createdAt,value
2022-09-10T00:01:20.731Z,14.82
2022-09-10T00:03:49.210Z,14.80
2022-09-10T00:06:18.646Z,14.80
2022-09-10T00:08:47.101Z,14.78
2022-09-10T00:11:15.204Z,14.78
2022-09-10T00:13:42.831Z,14.78
2022-09-10T00:16:12.625Z,14.78
2022-09-10T00:18:40.063Z,14.78
2022-09-10T00:21:12.803Z,14.81
2022-09-10T00:23:40.871Z,14.83
2022-09-10T00:26:15.040Z,14.83
2022-09-10T00:28:43.014Z,14.83
2022-09-10T00:31:09.861Z,14.85
2022-09-10T00:33:37.266Z,14.86
2022-09-10T00:36:14.256Z,14.89
2022-09-10T00:38:41.034Z,14.91
2022-09-10T00:41:08.374Z,14.89
2022-09-10T00:43:49.078Z,14.91
2022-09-10T00:46:37.267Z,14.91
2022-09-10T00:49:31.051Z,14.91
2022-09-10T00:51:58.825Z,14.91
2022-09-10T00:54:28.410Z,14.93
2022-09-10T00:56:59.583Z,14.92
2022-09-10T00:59:27.403Z,14.92
2022-09-10T01:01:55.821Z,14.92
2022-09-10T01:04:23.111Z,14.91
2022-09-10T01:06:54.528Z,14.90
2022-09-10T01:09:24.003Z,14.89
2022-09-10T01:12:13.007Z,14.91
2022-09-10T01:15:18.139Z,14.89
2022-09-10T01:18:09.454Z,14.87
2022-09-10T01:21:03.366Z,14.81
2022-09-10T01:23:52.513Z,14.77
2022-09-10T01:26:39.018Z,14.72
2022-09-10T01:29:13.987Z,14.70
2022-09-10T01:32:00.712Z,14.67
2022-09-10T01:34:32.904Z,14.64
2022-09-10T01:37:08.031Z,14.61
2022-09-10T01:39:35.293Z,14.59
2022-09-10T01:42:02.333Z,14.56
2022-09-10T01:44:45.766Z,14.55
2022-09-10T01:47:27.828Z,14.52
2022-09-10T01:50:00.510Z,14.51
2022-09-10T01:52:57.733Z,14.50
2022-09-10T01:56:05.046Z,14.48
2022-09-10T01:58:39.734Z,14.48
2022-09-10T02:01:16.848Z,14.46
2022-09-10T02:03:48.439Z,14.45
2022-09-10T02:06:19.576Z,14.45
2022-09-10T02:08:49.785Z,14.43
2022-09-10T02:11:16.645Z,14.45
2022-09-10T02:13:43.539Z,14.46
2022-09-10T02:16:15.379Z,14.47
2022-09-10T02:18:43.429Z,14.48
2022-09-10T02:21:11.844Z,14.49
2022-09-10T02:23:44.495Z,14.50
2022-09-10T02:26:12.485Z,14.50
2022-09-10T02:28:39.396Z,14.49
2022-09-10T02:31:06.257Z,14.51
2022-09-10T02:33:33.026Z,14.52
2022-09-10T02:35:59.759Z,14.53
2022-09-10T02:38:27.042Z,14.53
2022-09-10T02:40:55.767Z,14.54
2022-09-10T02:43:22.629Z,14.53
2022-09-10T02:45:49.504Z,14.57
2022-09-10T02:48:17.561Z,14.58
2022-09-10T02:50:46.331Z,14.58
2022-09-10T02:53:14.144Z,14.59
2022-09-10T02:55:41.405Z,14.59
2022-09-10T02:58:08.306Z,14.61
2022-09-10T03:00:35.255Z,14.63
2022-09-10T03:03:03.305Z,14.63
2022-09-10T03:05:30.290Z,14.65
2022-09-10T03:07:57.333Z,14.65
2022-09-10T03:10:24.626Z,14.66
2022-09-10T03:12:52.183Z,14.68
2022-09-10T03:15:20.707Z,14.68
2022-09-10T03:17:47.529Z,14.68
2022-09-10T03:20:14.430Z,14.72
2022-09-10T03:22:41.385Z,14.73
2022-09-10T03:25:08.235Z,14.72
2022-09-10T03:27:35.504Z,14.73
2022-09-10T03:30:03.228Z,14.75
2022-09-10T03:32:32.313Z,14.74
2022-09-10T03:35:00.226Z,14.76
2022-09-10T03:37:27.066Z,14.76
2022-09-10T03:39:54.038Z,14.78
2022-09-10T03:42:21.079Z,14.77
2022-09-10T03:44:47.774Z,14.79
2022-09-10T03:47:14.613Z,14.79
2022-09-10T03:49:41.442Z,14.78
2022-09-10T03:52:08.286Z,14.82
2022-09-10T03:54:35.507Z,14.81
2022-09-10T03:57:03.138Z,14.83
2022-09-10T03:59:30.020Z,14.83
2022-09-10T04:01:57.394Z,14.83
2022-09-10T04:04:24.217Z,14.83
2022-09-10T04:06:53.235Z,14.84
2022-09-10T04:09:20.331Z,14.86
2022-09-10T04:11:47.043Z,14.87
2022-09-10T04:14:13.896Z,14.88
2022-09-10T04:16:40.712Z,14.91
2022-09-10T04:19:08.709Z,14.90
2022-09-10T04:21:35.394Z,14.92
2022-09-10T04:24:03.261Z,14.91
2022-09-10T04:26:30.179Z,14.93
2022-09-10T04:28:56.993Z,14.94
2022-09-10T04:31:23.782Z,14.95
2022-09-10T04:33:50.866Z,14.96
2022-09-10T04:36:17.745Z,14.97
2022-09-10T04:38:44.779Z,14.97
2022-09-10T04:41:12.341Z,14.95
2022-09-10T04:43:39.143Z,14.93
2022-09-10T04:46:06.048Z,14.91
2022-09-10T04:48:33.830Z,14.90
2022-09-10T04:51:15.677Z,14.91
2022-09-10T04:53:44.343Z,14.90
2022-09-10T04:56:11.380Z,14.91
2022-09-10T04:58:39.158Z,14.90
2022-09-10T05:01:06.949Z,14.91
2022-09-10T05:03:34.059Z,14.91
2022-09-10T05:06:00.895Z,14.90
2022-09-10T05:08:27.786Z,14.90
2022-09-10T05:10:54.589Z,14.91
2022-09-10T05:13:21.414Z,14.91
2022-09-10T05:15:48.171Z,14.91
2022-09-10T05:18:14.946Z,14.90
2022-09-10T05:20:44.802Z,14.90
2022-09-10T05:23:12.380Z,14.92
2022-09-10T05:25:39.278Z,14.93
2022-09-10T05:28:06.150Z,14.95
2022-09-10T05:30:33.221Z,14.95
2022-09-10T05:33:03.616Z,14.94
2022-09-10T05:35:30.471Z,14.96
2022-09-10T05:37:57.734Z,14.98
2022-09-10T05:40:25.605Z,14.99
2022-09-10T05:42:54.366Z,15.01
2022-09-10T05:45:23.584Z,15.06
2022-09-10T05:47:51.547Z,15.08
2022-09-10T05:50:18.756Z,15.10
2022-09-10T05:52:46.932Z,15.14
2022-09-10T05:55:14.434Z,15.17
2022-09-10T05:57:41.708Z,15.20
2022-09-10T06:00:10.136Z,15.21
2022-09-10T06:02:37.594Z,15.23
2022-09-10T06:05:05.058Z,15.23
2022-09-10T06:07:31.952Z,15.22
2022-09-10T06:10:00.272Z,15.26
2022-09-10T06:12:27.327Z,15.31
2022-09-10T06:14:54.282Z,15.32
2022-09-10T06:17:21.121Z,15.33
2022-09-10T06:19:48.013Z,15.33
2022-09-10T06:22:14.857Z,15.33
2022-09-10T06:24:42.234Z,15.32
2022-09-10T06:27:09.810Z,15.34
2022-09-10T06:29:36.944Z,15.33
2022-09-10T06:32:04.465Z,15.35
2022-09-10T06:34:31.695Z,15.38
2022-09-10T06:36:58.620Z,15.41
2022-09-10T06:39:25.451Z,15.45
2022-09-10T06:41:53.818Z,15.50
2022-09-10T06:44:21.447Z,15.53
2022-09-10T06:47:28.305Z,15.57
2022-09-10T06:49:36.758Z,15.57
2022-09-10T06:52:03.670Z,15.57
2022-09-10T06:54:30.549Z,15.59
2022-09-10T06:56:58.228Z,15.61
2022-09-10T06:59:25.104Z,15.63
2022-09-10T07:01:52.087Z,15.66
2022-09-10T07:04:19.172Z,15.68
2022-09-10T07:06:47.699Z,15.74
2022-09-10T07:09:15.179Z,15.78
2022-09-10T07:11:42.133Z,15.85
2022-09-10T07:14:12.830Z,15.91
2022-09-10T07:16:44.796Z,15.97
2022-09-10T07:19:15.335Z,16.08
2022-09-10T07:21:42.413Z,16.17
2022-09-10T07:24:10.814Z,16.25
2022-09-10T07:26:37.700Z,16.36
2022-09-10T07:29:04.999Z,16.46
2022-09-10T07:31:37.372Z,16.48
2022-09-10T07:34:05.331Z,16.50
2022-09-10T07:36:32.404Z,16.50
2022-09-10T07:39:02.007Z,16.47
2022-09-10T07:41:30.119Z,16.48
2022-09-10T07:43:58.021Z,16.49
2022-09-10T07:46:25.807Z,16.44
2022-09-10T07:48:56.793Z,16.44
2022-09-10T07:51:25.031Z,16.45
2022-09-10T07:53:59.478Z,16.46
2022-09-10T07:56:26.703Z,16.54
2022-09-10T07:58:54.262Z,16.60
2022-09-10T08:01:21.391Z,16.70
2022-09-10T08:03:48.521Z,16.81
2022-09-10T08:06:16.637Z,16.86
2022-09-10T08:08:43.490Z,16.94
2022-09-10T08:11:14.047Z,17.03
2022-09-10T08:13:42.746Z,17.13
2022-09-10T08:16:12.519Z,17.26
2022-09-10T08:18:40.201Z,17.31
2022-09-10T08:21:11.087Z,17.31
2022-09-10T08:23:41.708Z,17.28
2022-09-10T08:26:08.711Z,17.34
2022-09-10T08:28:36.704Z,17.33
2022-09-10T08:31:10.168Z,17.26
2022-09-10T08:33:39.640Z,17.19
2022-09-10T08:36:12.188Z,17.16
2022-09-10T08:38:40.553Z,17.10
2022-09-10T08:41:22.046Z,17.06
2022-09-10T08:44:10.631Z,17.05
2022-09-10T08:46:37.454Z,17.08
2022-09-10T08:49:39.596Z,17.14
2022-09-10T08:52:37.707Z,17.25
2022-09-10T08:55:19.443Z,17.31
2022-09-10T08:57:54.078Z,17.32
2022-09-10T09:00:23.572Z,17.37
2022-09-10T09:03:09.230Z,17.42
2022-09-10T09:05:56.359Z,17.46
2022-09-10T09:08:27.323Z,17.45
2022-09-10T09:11:04.291Z,17.45
2022-09-10T09:13:49.784Z,17.45
2022-09-10T09:16:16.466Z,17.44
2022-09-10T09:18:49.416Z,17.45
2022-09-10T09:21:18.372Z,17.53
2022-09-10T09:24:13.592Z,17.64
2022-09-10T09:26:45.706Z,17.72
2022-09-10T09:29:19.064Z,17.77
2022-09-10T09:31:59.885Z,17.86
2022-09-10T09:34:45.158Z,17.91
2022-09-10T09:37:24.188Z,18.11
2022-09-10T09:40:04.266Z,18.26
2022-09-10T09:42:56.501Z,18.32
2022-09-10T09:45:37.936Z,18.34
2022-09-10T09:48:13.084Z,18.22
2022-09-10T09:50:43.880Z,18.27
2022-09-10T09:53:20.618Z,18.63
2022-09-10T09:55:54.341Z,19.05
2022-09-10T09:58:21.208Z,19.11
2022-09-10T10:00:52.502Z,18.95
2022-09-10T10:03:25.783Z,19.04
2022-09-10T10:06:12.706Z,19.52
2022-09-10T10:08:44.527Z,19.86
2022-09-10T10:11:15.805Z,19.94
2022-09-10T10:13:46.133Z,20.01
2022-09-10T10:16:35.850Z,20.16
2022-09-10T10:19:03.200Z,19.91
2022-09-10T10:21:34.871Z,19.64
2022-09-10T10:24:01.948Z,19.89
2022-09-10T10:26:34.986Z,20.43
2022-09-10T10:29:07.804Z,20.46
2022-09-10T10:31:39.686Z,20.34
2022-09-10T10:34:09.617Z,20.11
2022-09-10T10:37:14.984Z,19.82
2022-09-10T10:40:22.979Z,19.59
2022-09-10T10:43:08.272Z,19.44
2022-09-10T10:45:39.306Z,19.37
2022-09-10T10:48:18.472Z,19.26
2022-09-10T10:51:08.062Z,19.27
2022-09-10T10:53:47.303Z,19.31
2022-09-10T10:56:36.261Z,19.34
2022-09-10T10:59:15.081Z,19.44
2022-09-10T11:01:48.803Z,19.51
2022-09-10T11:04:27.301Z,19.60
2022-09-10T11:07:47.364Z,19.84
2022-09-10T11:10:29.860Z,19.83
2022-09-10T11:13:09.708Z,19.76
2022-09-10T11:15:47.697Z,19.93
2022-09-10T11:18:49.988Z,20.07
2022-09-10T11:21:22.761Z,20.13
2022-09-10T11:24:05.328Z,20.12
2022-09-10T11:26:38.051Z,20.07
2022-09-10T11:29:31.666Z,20.03
2022-09-10T11:32:07.545Z,19.92
2022-09-10T11:34:52.099Z,19.93
2022-09-10T11:37:31.629Z,19.89
2022-09-10T11:40:03.442Z,19.80
2022-09-10T11:42:36.736Z,19.87
2022-09-10T11:45:46.335Z,19.90
2022-09-10T11:48:35.151Z,19.99
2022-09-10T11:51:08.238Z,20.04
2022-09-10T11:53:37.171Z,20.14
2022-09-10T11:56:28.815Z,20.30
2022-09-10T11:59:10.035Z,20.71
2022-09-10T12:01:55.209Z,21.03
2022-09-10T12:04:40.117Z,20.86
2022-09-10T12:07:14.672Z,20.89
2022-09-10T12:09:47.492Z,21.39
2022-09-10T12:12:31.782Z,21.25
2022-09-10T12:14:59.659Z,21.22
2022-09-10T12:17:31.945Z,21.38
2022-09-10T12:20:02.362Z,21.42
2022-09-10T12:22:37.053Z,21.28
2022-09-10T12:25:17.086Z,21.44
2022-09-10T12:27:51.565Z,21.81
2022-09-10T12:30:36.280Z,22.11
2022-09-10T12:33:26.767Z,22.48
2022-09-10T12:35:54.172Z,22.24
2022-09-10T12:39:03.573Z,21.61
2022-09-10T12:41:30.357Z,21.35
2022-09-10T12:43:58.961Z,21.81
2022-09-10T12:46:27.244Z,22.38
2022-09-10T12:48:55.489Z,22.27
2022-09-10T12:51:46.414Z,21.78
2022-09-10T12:54:26.506Z,21.39
2022-09-10T12:57:03.883Z,21.02
2022-09-10T12:59:59.078Z,20.82
2022-09-10T13:02:25.875Z,20.68
2022-09-10T13:04:57.372Z,20.57
2022-09-10T13:07:34.696Z,20.49
2022-09-10T13:10:19.692Z,20.41
2022-09-10T13:12:55.362Z,20.56
2022-09-10T13:15:30.136Z,20.62
2022-09-10T13:17:57.189Z,20.69
2022-09-10T13:20:26.809Z,20.85
2022-09-10T13:23:08.895Z,20.74
2022-09-10T13:25:40.441Z,20.64
2022-09-10T13:28:29.055Z,20.66
2022-09-10T13:31:11.329Z,20.89
2022-09-10T13:33:43.886Z,21.07
2022-09-10T13:36:52.484Z,21.60
2022-09-10T13:39:43.920Z,22.16
2022-09-10T13:42:31.327Z,22.54
2022-09-10T13:45:20.620Z,22.18
2022-09-10T13:48:01.209Z,21.65
2022-09-10T13:50:51.469Z,21.13
2022-09-10T13:53:20.462Z,20.82
2022-09-10T13:55:59.131Z,20.57
2022-09-10T13:58:30.739Z,20.45
2022-09-10T14:01:03.427Z,20.39
2022-09-10T14:03:31.405Z,20.37
2022-09-10T14:06:05.337Z,20.67
2022-09-10T14:08:39.479Z,20.78
2022-09-10T14:11:12.459Z,21.15
2022-09-10T14:14:17.687Z,21.61
2022-09-10T14:16:51.417Z,21.30
2022-09-10T14:19:30.503Z,21.04
2022-09-10T14:21:57.703Z,20.77
2022-09-10T14:24:27.514Z,20.59
2022-09-10T14:27:15.695Z,20.45
2022-09-10T14:29:43.585Z,20.32
2022-09-10T14:32:30.893Z,20.82
2022-09-10T14:34:59.048Z,21.10
2022-09-10T14:37:29.513Z,21.08
2022-09-10T14:39:56.946Z,20.89
2022-09-10T14:42:34.444Z,20.82
2022-09-10T14:45:01.968Z,20.75
2022-09-10T14:47:35.090Z,20.71
2022-09-10T14:50:31.357Z,20.63
2022-09-10T14:52:59.214Z,20.53
2022-09-10T14:55:28.510Z,20.45
2022-09-10T14:57:56.235Z,20.48
2022-09-10T15:00:24.224Z,20.57
2022-09-10T15:02:53.137Z,20.78
2022-09-10T15:05:20.393Z,20.75
2022-09-10T15:07:47.678Z,20.72
2022-09-10T15:10:14.666Z,20.78
2022-09-10T15:12:47.123Z,21.08
2022-09-10T15:15:17.586Z,21.25
2022-09-10T15:17:44.952Z,21.20
2022-09-10T15:20:17.127Z,20.94
2022-09-10T15:22:44.670Z,20.70
2022-09-10T15:25:28.521Z,20.52
2022-09-10T15:27:55.385Z,20.46
2022-09-10T15:30:23.956Z,20.41
2022-09-10T15:32:52.129Z,20.33
2022-09-10T15:35:19.093Z,20.30
2022-09-10T15:37:46.423Z,20.50
2022-09-10T15:40:13.526Z,20.48
2022-09-10T15:42:40.462Z,20.33
2022-09-10T15:45:08.887Z,20.36
2022-09-10T15:47:36.488Z,20.35
2022-09-10T15:50:05.024Z,20.29
2022-09-10T15:52:31.802Z,20.35
2022-09-10T15:54:58.703Z,20.34
2022-09-10T15:57:26.329Z,20.24
2022-09-10T15:59:54.407Z,20.25
2022-09-10T16:02:21.367Z,20.31
2022-09-10T16:04:48.579Z,20.35
2022-09-10T16:07:15.762Z,20.39
2022-09-10T16:09:43.691Z,20.43
2022-09-10T16:12:10.808Z,20.42
2022-09-10T16:14:37.842Z,20.30
2022-09-10T16:17:10.585Z,20.20
2022-09-10T16:19:38.229Z,20.11
2022-09-10T16:22:08.254Z,20.00
2022-09-10T16:24:35.184Z,19.84
2022-09-10T16:27:02.029Z,19.75
2022-09-10T16:29:28.825Z,19.67
2022-09-10T16:31:58.983Z,19.61
2022-09-10T16:34:25.955Z,19.52
2022-09-10T16:36:53.194Z,19.48
2022-09-10T16:39:20.487Z,19.45
2022-09-10T16:41:49.080Z,19.39
2022-09-10T16:44:17.621Z,19.35
2022-09-10T16:46:46.410Z,19.30
2022-09-10T16:49:14.475Z,19.30
2022-09-10T16:51:43.035Z,19.30
2022-09-10T16:54:11.048Z,19.32
2022-09-10T16:56:43.106Z,19.28
2022-09-10T16:59:30.446Z,19.25
2022-09-10T17:02:00.624Z,19.22
2022-09-10T17:04:29.342Z,19.19
2022-09-10T17:06:57.623Z,19.20
2022-09-10T17:09:25.122Z,19.13
2022-09-10T17:11:52.394Z,19.08
2022-09-10T17:14:19.646Z,19.03
2022-09-10T17:16:48.193Z,19.01
2022-09-10T17:19:20.622Z,18.94
2022-09-10T17:21:51.474Z,18.90
2022-09-10T17:24:21.148Z,18.86
2022-09-10T17:26:48.350Z,18.80
2022-09-10T17:29:17.744Z,18.73
2022-09-10T17:31:46.771Z,18.66
2022-09-10T17:34:15.534Z,18.58
2022-09-10T17:36:44.815Z,18.52
2022-09-10T17:39:12.499Z,18.49
2022-09-10T17:41:40.325Z,18.46
2022-09-10T17:44:08.271Z,18.40
2022-09-10T17:46:36.311Z,18.35
2022-09-10T17:49:04.480Z,18.30
2022-09-10T17:51:34.046Z,18.27
2022-09-10T17:54:03.373Z,18.22
2022-09-10T17:56:30.744Z,18.21
2022-09-10T17:59:03.076Z,18.20
2022-09-10T18:01:39.208Z,18.17
2022-09-10T18:04:07.523Z,18.12
2022-09-10T18:06:37.369Z,18.08
2022-09-10T18:09:05.279Z,18.04
2022-09-10T18:11:35.755Z,17.99
2022-09-10T18:14:03.139Z,17.95
2022-09-10T18:16:32.888Z,17.93
2022-09-10T18:19:13.592Z,17.88
2022-09-10T18:21:41.517Z,17.81
2022-09-10T18:24:14.671Z,17.78
2022-09-10T18:26:44.822Z,17.76
2022-09-10T18:29:17.803Z,17.70
2022-09-10T18:31:47.889Z,17.65
2022-09-10T18:34:22.614Z,17.61
2022-09-10T18:36:57.762Z,17.54
2022-09-10T18:39:26.575Z,17.50
2022-09-10T18:41:53.990Z,17.47
2022-09-10T18:44:24.542Z,17.44
2022-09-10T18:46:53.135Z,17.41
2022-09-10T18:49:21.741Z,17.37
2022-09-10T18:51:49.585Z,17.30
2022-09-10T18:54:17.586Z,17.27
2022-09-10T18:56:45.299Z,17.22
2022-09-10T18:59:15.308Z,17.21
2022-09-10T19:01:43.915Z,17.14
2022-09-10T19:04:13.849Z,17.11
2022-09-10T19:06:43.115Z,17.07
2022-09-10T19:09:12.623Z,17.06
2022-09-10T19:11:44.435Z,17.03
2022-09-10T19:14:18.244Z,16.96
2022-09-10T19:16:47.087Z,16.95
2022-09-10T19:19:18.513Z,16.94
2022-09-10T19:22:01.175Z,16.91
2022-09-10T19:24:51.027Z,16.87
2022-09-10T19:27:14.739Z,16.85
2022-09-10T19:29:42.406Z,16.84
2022-09-10T19:32:11.476Z,16.81
2022-09-10T19:34:39.116Z,16.78
2022-09-10T19:37:07.355Z,16.77
2022-09-10T19:39:34.175Z,16.72
2022-09-10T19:42:01.114Z,16.66
2022-09-10T19:44:28.130Z,16.64
2022-09-10T19:46:55.485Z,16.63
2022-09-10T19:49:22.435Z,16.58
2022-09-10T19:51:49.514Z,16.56
2022-09-10T19:54:16.566Z,16.53
2022-09-10T19:56:43.893Z,16.51
2022-09-10T19:59:11.002Z,16.46
2022-09-10T20:01:40.435Z,16.44
2022-09-10T20:04:11.103Z,16.41
2022-09-10T20:06:38.918Z,16.38
2022-09-10T20:09:08.744Z,16.36
2022-09-10T20:11:36.271Z,16.35
2022-09-10T20:14:09.566Z,16.25
2022-09-10T20:16:43.032Z,16.26
2022-09-10T20:19:12.256Z,16.25
2022-09-10T20:21:39.565Z,16.24
2022-09-10T20:24:08.004Z,16.23
2022-09-10T20:26:38.301Z,16.23
2022-09-10T20:29:12.460Z,16.19
2022-09-10T20:31:41.365Z,16.16
2022-09-10T20:34:12.012Z,16.12
2022-09-10T20:36:38.799Z,16.10
2022-09-10T20:39:06.749Z,16.09
2022-09-10T20:41:34.245Z,16.08
2022-09-10T20:44:02.160Z,16.07
2022-09-10T20:46:31.006Z,16.05
2022-09-10T20:49:03.237Z,16.02
2022-09-10T20:51:38.892Z,16.00
2022-09-10T20:54:07.669Z,15.93
2022-09-10T20:56:34.422Z,15.92
2022-09-10T20:59:02.083Z,15.87
2022-09-10T21:01:31.295Z,15.86
2022-09-10T21:03:59.572Z,15.81
2022-09-10T21:06:31.951Z,15.78
2022-09-10T21:08:59.576Z,15.77
2022-09-10T21:11:29.011Z,15.76
2022-09-10T21:13:59.621Z,15.71
2022-09-10T21:16:31.666Z,15.71
2022-09-10T21:19:05.006Z,15.66
2022-09-10T21:21:34.312Z,15.64
2022-09-10T21:24:07.284Z,15.59
2022-09-10T21:26:36.366Z,15.57
2022-09-10T21:29:05.585Z,15.53
2022-09-10T21:31:32.686Z,15.50
2022-09-10T21:34:03.289Z,15.48
2022-09-10T21:36:32.046Z,15.46
2022-09-10T21:39:01.556Z,15.44
2022-09-10T21:41:36.837Z,15.43
2022-09-10T21:44:06.208Z,15.39
2022-09-10T21:46:34.210Z,15.39
2022-09-10T21:49:01.208Z,15.39
2022-09-10T21:51:28.429Z,15.39
2022-09-10T21:53:58.285Z,15.34
2022-09-10T21:56:27.706Z,15.33
2022-09-10T21:58:56.765Z,15.31
2022-09-10T22:01:26.569Z,15.28
2022-09-10T22:03:56.601Z,15.24
2022-09-10T22:06:26.133Z,15.19
2022-09-10T22:08:58.424Z,15.17
2022-09-10T22:11:41.916Z,15.14
2022-09-10T22:14:16.271Z,15.13
2022-09-10T22:16:43.518Z,15.09
2022-09-10T22:19:14.342Z,15.06
2022-09-10T22:21:41.363Z,15.06
2022-09-10T22:24:12.776Z,15.00
2022-09-10T22:26:44.854Z,14.97
2022-09-10T22:29:12.934Z,14.94
2022-09-10T22:31:39.805Z,14.93
2022-09-10T22:34:10.030Z,14.91
2022-09-10T22:36:39.529Z,14.90
2022-09-10T22:39:14.753Z,14.87
2022-09-10T22:41:42.628Z,14.86
2022-09-10T22:44:10.027Z,14.82
2022-09-10T22:46:37.870Z,14.81
2022-09-10T22:49:05.930Z,14.81
2022-09-10T22:51:36.244Z,14.78
2022-09-10T22:54:04.744Z,14.76
2022-09-10T22:56:31.760Z,14.75
2022-09-10T22:58:59.876Z,14.70
2022-09-10T23:01:29.548Z,14.67
2022-09-10T23:03:58.153Z,14.64
2022-09-10T23:06:27.944Z,14.60
2022-09-10T23:08:57.195Z,14.57
2022-09-10T23:11:29.811Z,14.53
2022-09-10T23:13:59.503Z,14.52
2022-09-10T23:16:28.911Z,14.50
2022-09-10T23:18:58.057Z,14.45
2022-09-10T23:21:26.911Z,14.43
2022-09-10T23:23:56.465Z,14.43
2022-09-10T23:26:24.485Z,14.42
2022-09-10T23:28:51.647Z,14.39
2022-09-10T23:31:29.475Z,14.36
2022-09-10T23:34:08.506Z,14.35
2022-09-10T23:36:40.906Z,14.31
2022-09-10T23:39:22.054Z,14.29
2022-09-10T23:41:54.593Z,14.25
2022-09-10T23:44:22.684Z,14.24
2022-09-10T23:46:49.518Z,14.21
2022-09-10T23:49:16.499Z,14.19
2022-09-10T23:51:43.612Z,14.18
2022-09-10T23:54:11.649Z,14.15
2022-09-10T23:56:39.188Z,14.11
2022-09-10T23:59:06.117Z,14.09
